Time;durP1;ratioP1;P1;durP2;ratioP2;P2;SDS_P1;SDS_P2;PMS_P1;PMS_P2;Temp;Humidity;BMP_temperature;BMP_pressure;BME280_temperature;BME280_humidity;BME280_pressure;Samples;Min_cycle;Max_cycle;Signal;HPM_P1;HPM_P2
2022/07/15 00:00:31;;;;;;;3.80;1.60;;;12.60;99.90;;;;;;5089330;28;20870;-82
2022/07/15 00:02:58;;;;;;;3.58;1.80;;;12.60;99.90;;;;;;5089400;28;20372;-82
2022/07/15 00:05:24;;;;;;;4.53;2.08;;;12.60;99.90;;;;;;5089871;28;20534;-82
2022/07/15 00:07:50;;;;;;;3.30;1.83;;;12.50;99.90;;;;;;5085887;28;20385;-82
2022/07/15 00:10:15;;;;;;;3.50;1.63;;;12.50;99.90;;;;;;5078593;28;20481;-82
2022/07/15 00:12:43;;;;;;;4.45;1.98;;;12.50;99.90;;;;;;5068453;28;20931;-82
2022/07/15 00:15:10;;;;;;;3.33;1.80;;;12.40;99.90;;;;;;5081401;28;20384;-82
2022/07/15 00:17:35;;;;;;;3.50;1.90;;;12.30;99.90;;;;;;5078151;28;20386;-82
2022/07/15 00:20:01;;;;;;;3.53;1.93;;;12.20;99.90;;;;;;5068547;28;20393;-82
2022/07/15 00:22:27;;;;;;;3.15;1.90;;;12.20;99.90;;;;;;5070301;28;20377;-82
2022/07/15 00:24:53;;;;;;;3.70;1.80;;;12.30;99.90;;;;;;5077444;28;20465;-82
2022/07/15 00:27:19;;;;;;;3.93;2.00;;;12.20;99.90;;;;;;5083885;28;20371;-81
2022/07/15 00:29:44;;;;;;;5.35;2.00;;;12.20;99.90;;;;;;5071164;28;20399;-81
2022/07/15 00:32:10;;;;;;;2.85;1.90;;;12.10;99.90;;;;;;5089685;28;20743;-82
2022/07/15 00:34:36;;;;;;;4.40;2.40;;;12.10;99.90;;;;;;5090334;28;20376;-81
2022/07/15 00:37:02;;;;;;;4.57;2.10;;;12.20;99.90;;;;;;5088835;28;20380;-81
2022/07/15 00:39:27;;;;;;;3.50;2.10;;;12.10;99.90;;;;;;5089894;28;20377;-81
2022/07/15 00:41:53;;;;;;;3.92;1.90;;;12.10;99.90;;;;;;5089431;28;21055;-82
2022/07/15 00:44:19;;;;;;;5.60;2.40;;;12.00;99.90;;;;;;5089363;28;20369;-81
2022/07/15 00:46:44;;;;;;;3.70;2.23;;;12.00;99.90;;;;;;5071285;28;20380;-82
2022/07/15 00:49:11;;;;;;;8.15;2.80;;;12.00;99.90;;;;;;5088995;28;20361;-82
2022/07/15 00:51:45;;;;;;;4.72;2.10;;;12.00;99.90;;;;;;5088932;28;20984;-82
2022/07/15 00:54:14;;;;;;;4.38;2.42;;;12.00;99.90;;;;;;5088722;28;20396;-81
2022/07/15 00:56:49;;;;;;;6.75;2.58;;;11.90;99.90;;;;;;5071172;28;20449;-81
2022/07/15 00:59:15;;;;;;;8.90;2.83;;;11.90;99.90;;;;;;5070746;28;20418;-82
2022/07/15 01:01:42;;;;;;;6.07;2.40;;;11.80;99.90;;;;;;5070939;28;20722;-81
2022/07/15 01:04:11;;;;;;;6.85;2.42;;;11.90;99.90;;;;;;5089412;28;20427;-82
2022/07/15 01:06:36;;;;;;;5.90;2.30;;;11.90;99.90;;;;;;5070608;28;20774;-81
2022/07/15 01:09:02;;;;;;;5.37;2.30;;;11.80;99.90;;;;;;5089195;28;20365;-82
2022/07/15 01:11:30;;;;;;;7.75;2.40;;;11.90;99.90;;;;;;5070934;28;20393;-81
2022/07/15 01:13:57;;;;;;;6.53;2.33;;;12.00;99.90;;;;;;5070818;28;20499;-81
2022/07/15 01:16:22;;;;;;;5.63;2.47;;;12.10;99.90;;;;;;5072160;28;20387;-81
2022/07/15 01:18:48;;;;;;;8.27;2.53;;;12.10;99.90;;;;;;5090701;28;20376;-82
2022/07/15 01:21:14;;;;;;;5.77;2.30;;;12.10;99.90;;;;;;5088490;28;20405;-81
2022/07/15 01:23:42;;;;;;;8.50;2.50;;;12.00;99.90;;;;;;5089574;28;20426;-82
2022/07/15 01:26:09;;;;;;;5.88;2.20;;;12.00;99.90;;;;;;5074144;28;20780;-82
2022/07/15 01:28:35;;;;;;;5.50;2.30;;;12.00;99.90;;;;;;5092473;28;20360;-82
2022/07/15 01:31:00;;;;;;;6.65;2.33;;;12.00;99.90;;;;;;5074615;28;20865;-82
2022/07/15 01:33:26;;;;;;;6.00;2.20;;;12.00;99.90;;;;;;5092785;28;20404;-82
2022/07/15 01:35:55;;;;;;;10.07;2.75;;;12.00;99.90;;;;;;5074279;28;20446;-82
2022/07/15 01:38:20;;;;;;;9.73;2.38;;;11.90;99.90;;;;;;5092595;28;20488;-82
2022/07/15 01:40:46;;;;;;;5.30;2.43;;;11.80;99.90;;;;;;5091614;28;20460;-82
2022/07/15 01:43:11;;;;;;;5.28;2.35;;;11.80;99.90;;;;;;5073497;28;20874;-82
2022/07/15 01:45:41;;;;;;;7.63;2.60;;;11.80;99.90;;;;;;5092610;28;20373;-82
2022/07/15 01:48:06;;;;;;;6.57;2.70;;;11.80;99.90;;;;;;5092541;28;20376;-82
2022/07/15 01:50:32;;;;;;;5.20;2.40;;;11.70;99.90;;;;;;5074117;28;20388;-82
2022/07/15 01:52:58;;;;;;;8.90;2.60;;;11.70;99.90;;;;;;5091990;28;20435;-81
2022/07/15 01:55:23;;;;;;;6.95;2.80;;;11.60;99.90;;;;;;5074268;28;20380;-82
2022/07/15 01:57:49;;;;;;;6.93;2.63;;;11.60;99.90;;;;;;5092059;28;20894;-82
2022/07/15 02:00:17;;;;;;;7.03;2.58;;;11.50;99.90;;;;;;5053843;28;20421;-81
2022/07/15 02:02:43;;;;;;;5.95;2.75;;;11.50;99.90;;;;;;5072060;28;20374;-82
2022/07/15 02:05:09;;;;;;;6.73;2.83;;;11.40;99.90;;;;;;5072326;28;20417;-81
2022/07/15 02:07:36;;;;;;;7.47;2.80;;;11.50;99.90;;;;;;5091901;28;20428;-81
2022/07/15 02:10:02;;;;;;;5.22;3.03;;;;;;;;;;5091956;28;20383;-82
2022/07/15 02:12:28;;;;;;;7.20;2.75;;;;;;;;;;5091515;28;20720;-81
2022/07/15 02:14:54;;;;;;;6.85;2.90;;;;;;;;;;5092128;28;20379;-81
2022/07/15 02:17:20;;;;;;;10.45;3.20;;;;;;;;;;5091483;28;20788;-82
2022/07/15 02:19:46;;;;;;;6.93;3.00;;;;;;;;;;5073558;28;20437;-82
2022/07/15 02:22:12;;;;;;;7.13;3.00;;;;;;;;;;5091298;28;20391;-82
2022/07/15 02:24:38;;;;;;;5.70;2.80;;;;;;;;;;5091890;28;20529;-82
2022/07/15 02:27:04;;;;;;;7.53;3.00;;;;;;;;;;5091231;28;20707;-82
2022/07/15 02:29:30;;;;;;;10.57;2.97;;;;;;;;;;5091746;28;20414;-82
2022/07/15 02:31:56;;;;;;;7.15;3.17;;;;;;;;;;5073128;28;20459;-82
2022/07/15 02:34:22;;;;;;;7.93;3.13;;;;;;;;;;5073348;28;20418;-82
2022/07/15 02:36:48;;;;;;;5.80;2.83;;;;;;;;;;5072847;28;20434;-81
2022/07/15 02:39:13;;;;;;;8.30;2.80;;;11.40;99.90;;;;;;5091256;28;20401;-82
2022/07/15 02:41:39;;;;;;;8.23;3.72;;;11.40;99.90;;;;;;5072866;28;20389;-82
2022/07/15 02:44:05;;;;;;;9.23;3.53;;;11.30;99.90;;;;;;5073356;28;20762;-81
2022/07/15 02:46:31;;;;;;;8.70;3.38;;;11.20;99.90;;;;;;5072759;28;20394;-82
2022/07/15 02:48:57;;;;;;;8.00;3.40;;;11.10;99.90;;;;;;5091749;28;20794;-81
2022/07/15 02:51:22;;;;;;;6.60;3.13;;;11.10;99.90;;;;;;5091709;28;20712;-82
2022/07/15 02:53:48;;;;;;;8.95;3.40;;;11.10;99.90;;;;;;5091299;28;20432;-82
2022/07/15 02:56:13;;;;;;;9.97;3.57;;;11.10;99.90;;;;;;5073072;28;20808;-81
2022/07/15 02:58:39;;;;;;;7.90;3.75;;;11.20;99.90;;;;;;5091624;28;20448;-82
2022/07/15 03:01:05;;;;;;;10.52;3.45;;;11.10;99.90;;;;;;5091259;28;20408;-81
2022/07/15 03:03:30;;;;;;;7.20;3.10;;;11.10;99.90;;;;;;5091178;28;20862;-82
2022/07/15 03:05:57;;;;;;;8.77;3.35;;;11.10;99.90;;;;;;5090930;28;20389;-82
2022/07/15 03:08:23;;;;;;;8.55;3.40;;;11.10;99.90;;;;;;5073331;28;20765;-82
2022/07/15 03:10:48;;;;;;;8.03;3.67;;;11.10;99.90;;;;;;5072217;28;20384;-82
2022/07/15 03:13:14;;;;;;;9.55;3.53;;;11.10;99.90;;;;;;5090269;28;20885;-81
2022/07/15 03:15:39;;;;;;;6.30;3.10;;;11.20;99.90;;;;;;5090460;28;20734;-82
2022/07/15 03:18:05;;;;;;;11.23;3.60;;;11.10;99.90;;;;;;5090761;28;20369;-82
2022/07/15 03:20:31;;;;;;;9.55;3.45;;;11.80;99.90;;;;;;5092114;28;20471;-81
2022/07/15 03:22:56;;;;;;;6.80;2.80;;;11.20;99.90;;;;;;5110860;28;20428;-82
2022/07/15 03:25:22;;;;;;;7.87;3.37;;;11.20;99.90;;;;;;5107254;28;21185;-82
2022/07/15 03:27:48;;;;;;;9.07;3.33;;;11.20;99.90;;;;;;5072183;28;20377;-81
2022/07/15 03:30:14;;;;;;;8.97;3.20;;;11.30;99.90;;;;;;5072369;28;20383;-81
2022/07/15 03:32:39;;;;;;;5.97;2.83;;;11.20;99.90;;;;;;5072325;28;20842;-82
2022/07/15 03:35:05;;;;;;;10.77;3.20;;;11.30;99.90;;;;;;5072016;28;20463;-82
2022/07/15 03:37:32;;;;;;;11.63;3.30;;;11.30;99.90;;;;;;5090303;28;20521;-82
2022/07/15 03:39:58;;;;;;;9.50;3.08;;;11.40;99.90;;;;;;5070980;28;20478;-82
2022/07/15 03:42:23;;;;;;;6.63;2.60;;;11.50;99.90;;;;;;5071754;28;20807;-82
2022/07/15 03:44:50;;;;;;;5.87;2.80;;;11.60;99.90;;;;;;5090514;28;20413;-82
2022/07/15 03:47:15;;;;;;;10.05;2.97;;;11.80;99.90;;;;;;5089594;28;20380;-82
2022/07/15 03:49:41;;;;;;;9.00;2.90;;;11.80;99.90;;;;;;5090414;28;21062;-81
2022/07/15 03:52:07;;;;;;;8.70;2.92;;;12.00;99.90;;;;;;5089550;28;20430;-81
2022/07/15 03:54:33;;;;;;;11.38;3.30;;;12.00;99.90;;;;;;5089884;28;20376;-82
2022/07/15 03:56:59;;;;;;;9.90;3.22;;;12.10;99.90;;;;;;5072106;28;20892;-82
2022/07/15 03:59:25;;;;;;;9.63;3.10;;;12.20;99.90;;;;;;5071989;28;20423;-81
2022/07/15 04:01:52;;;;;;;7.38;2.85;;;12.20;99.90;;;;;;5089371;28;20426;-81
2022/07/15 04:04:18;;;;;;;6.72;2.85;;;12.30;99.90;;;;;;5071609;28;20396;-82
2022/07/15 04:06:43;;;;;;;8.20;3.13;;;12.30;99.90;;;;;;5089227;28;20384;-82
2022/07/15 04:09:10;;;;;;;8.53;2.83;;;12.20;99.90;;;;;;5089682;28;20406;-82
2022/07/15 04:11:36;;;;;;;7.03;2.70;;;12.30;99.90;;;;;;5090134;28;20855;-82
2022/07/15 04:14:01;;;;;;;8.05;2.60;;;12.40;99.90;;;;;;5071904;28;20404;-82
2022/07/15 04:16:28;;;;;;;5.50;2.50;;;12.50;99.90;;;;;;5089531;28;20380;-82
2022/07/15 04:18:54;;;;;;;6.57;2.55;;;12.70;99.90;;;;;;5089601;28;20372;-82
2022/07/15 04:21:19;;;;;;;9.88;2.58;;;12.80;99.90;;;;;;5089443;28;20385;-82
2022/07/15 04:23:45;;;;;;;8.57;2.43;;;12.90;99.90;;;;;;5089226;28;20424;-81
2022/07/15 04:26:11;;;;;;;7.47;2.67;;;13.10;99.90;;;;;;5089574;28;20380;-82
2022/07/15 04:28:36;;;;;;;8.25;2.90;;;13.10;99.90;;;;;;5090010;28;20373;-81
2022/07/15 04:31:02;;;;;;;7.07;3.10;;;13.20;99.90;;;;;;5089313;28;20376;-81
2022/07/15 04:33:28;;;;;;;6.75;2.85;;;13.30;99.90;;;;;;5089863;28;20392;-82
2022/07/15 04:35:54;;;;;;;10.57;3.13;;;13.40;99.90;;;;;;5071762;28;20420;-82
2022/07/15 04:38:20;;;;;;;8.48;2.80;;;13.50;99.90;;;;;;5089069;28;20432;-81
2022/07/15 04:40:46;;;;;;;7.07;2.40;;;13.60;99.90;;;;;;5071977;28;20384;-81
2022/07/15 04:43:12;;;;;;;7.68;2.85;;;13.60;99.90;;;;;;5089313;28;20723;-82
2022/07/15 04:45:38;;;;;;;11.63;4.13;;;13.60;99.90;;;;;;5071327;28;20376;-82
2022/07/15 04:50:45;;;;;;;9.43;3.17;;;13.70;99.90;;;;;;5071186;28;20387;-82
2022/07/15 04:50:51;;;;;;;9.85;2.72;;;13.70;99.90;;;;;;5088786;28;20384;-82
2022/07/15 04:53:18;;;;;;;7.28;2.35;;;14.10;99.90;;;;;;5089173;28;20443;-82
2022/07/15 04:55:45;;;;;;;7.32;2.38;;;14.40;99.90;;;;;;5089103;28;20419;-81
2022/07/15 04:58:10;;;;;;;8.00;2.35;;;14.70;99.90;;;;;;5089943;28;20467;-82
2022/07/15 05:00:37;;;;;;;6.93;2.42;;;15.20;99.90;;;;;;5093953;28;20471;-82
2022/07/15 05:03:04;;;;;;;8.35;2.45;;;15.40;99.90;;;;;;5093726;28;20919;-81
2022/07/15 05:05:30;;;;;;;7.55;2.20;;;15.40;99.90;;;;;;5093855;28;20376;-81
2022/07/15 05:07:55;;;;;;;12.38;2.80;;;15.60;99.90;;;;;;5093259;28;20406;-81
2022/07/15 05:10:21;;;;;;;11.00;2.40;;;15.70;99.90;;;;;;5093613;28;20784;-82
2022/07/15 05:12:47;;;;;;;4.63;2.10;;;15.80;99.90;;;;;;5093755;28;20502;-82
2022/07/15 05:15:14;;;;;;;6.82;2.05;;;15.70;99.90;;;;;;5093286;28;20368;-82
2022/07/15 05:17:40;;;;;;;7.47;2.43;;;15.70;99.90;;;;;;5093275;28;20384;-83
2022/07/15 05:20:07;;;;;;;8.57;2.45;;;15.50;99.90;;;;;;5075914;28;20380;-82
2022/07/15 05:22:32;;;;;;;6.28;2.00;;;15.40;99.90;;;;;;5074818;28;20464;-82
2022/07/15 05:24:58;;;;;;;5.82;2.22;;;15.60;99.90;;;;;;5093090;28;20421;-82
2022/07/15 05:27:24;;;;;;;6.88;2.20;;;15.90;99.90;;;;;;5093839;28;20432;-82
2022/07/15 05:29:49;;;;;;;7.80;2.30;;;16.20;99.90;;;;;;5093341;28;20415;-83
2022/07/15 05:32:15;;;;;;;6.65;1.95;;;16.30;99.90;;;;;;5093454;28;20368;-82
2022/07/15 05:34:41;;;;;;;8.83;2.10;;;16.30;99.90;;;;;;5094116;28;20459;-82
2022/07/15 05:37:07;;;;;;;9.13;2.30;;;16.30;99.90;;;;;;5092654;28;20388;-83
2022/07/15 05:39:32;;;;;;;7.78;2.05;;;16.40;99.90;;;;;;5093582;28;20398;-81
2022/07/15 05:41:58;;;;;;;6.80;1.87;;;16.50;99.90;;;;;;5093667;28;20874;-82
2022/07/15 05:44:24;;;;;;;8.52;2.47;;;16.60;99.90;;;;;;5093467;28;20388;-82
2022/07/15 05:46:50;;;;;;;8.38;2.00;;;16.70;99.90;;;;;;5094099;28;20475;-82
2022/07/15 05:49:16;;;;;;;7.85;2.17;;;16.80;99.90;;;;;;5093218;28;20996;-82
2022/07/15 05:51:42;;;;;;;8.48;1.92;;;16.80;99.90;;;;;;5066067;28;20500;-82
2022/07/15 05:54:07;;;;;;;6.77;2.27;;;17.00;99.90;;;;;;5092521;28;20755;-82
2022/07/15 05:56:33;;;;;;;6.03;2.03;;;17.30;99.90;;;;;;5094088;28;20360;-83
2022/07/15 05:58:59;;;;;;;5.43;2.23;;;17.40;99.90;;;;;;5075535;28;20473;-81
2022/07/15 06:01:25;;;;;;;7.22;2.10;;;17.50;99.90;;;;;;5094837;28;20898;-82
2022/07/15 06:03:51;;;;;;;7.43;2.80;;;17.70;99.90;;;;;;5093778;28;20468;-81
2022/07/15 06:06:16;;;;;;;7.67;2.53;;;17.80;99.90;;;;;;5093199;28;20385;-82
2022/07/15 06:08:43;;;;;;;6.27;1.97;;;17.80;99.90;;;;;;5093277;28;20989;-81
2022/07/15 06:11:11;;;;;;;8.75;2.00;;;18.00;99.90;;;;;;5093706;28;20410;-81
2022/07/15 06:13:38;;;;;;;8.50;2.20;;;18.10;99.90;;;;;;5075301;28;20404;-82
2022/07/15 06:16:04;;;;;;;7.25;1.83;;;18.00;99.90;;;;;;5091416;28;20870;-81
2022/07/15 06:18:30;;;;;;;6.93;2.33;;;17.90;99.90;;;;;;5093627;28;20380;-82
2022/07/15 06:20:55;;;;;;;5.10;2.00;;;18.10;99.90;;;;;;5093245;28;20850;-82
2022/07/15 06:23:21;;;;;;;9.27;2.07;;;18.30;99.90;;;;;;5093157;28;20388;-82
2022/07/15 06:25:47;;;;;;;7.10;1.67;;;18.30;99.90;;;;;;5093137;28;20372;-82
2022/07/15 06:28:13;;;;;;;5.30;1.98;;;18.10;99.90;;;;;;5074583;28;20388;-82
2022/07/15 06:30:39;;;;;;;4.88;1.70;;;18.20;99.90;;;;;;5091180;28;20380;-83
2022/07/15 06:33:05;;;;;;;6.13;1.83;;;18.40;99.90;;;;;;5087722;28;20900;-83
2022/07/15 06:35:30;;;;;;;8.70;1.75;;;18.40;99.90;;;;;;5085752;28;20461;-81
2022/07/15 06:37:56;;;;;;;8.85;2.28;;;18.50;99.90;;;;;;5090944;28;20443;-81
2022/07/15 06:40:22;;;;;;;5.50;1.73;;;18.80;99.90;;;;;;5072842;28;20388;-82
2022/07/15 06:42:48;;;;;;;4.43;1.55;;;19.10;99.90;;;;;;5090222;28;20392;-82
2022/07/15 06:45:13;;;;;;;5.90;1.60;;;19.10;99.90;;;;;;5091430;28;20400;-83
2022/07/15 06:47:42;;;;;;;3.95;1.60;;;18.90;99.90;;;;;;5091547;28;20400;-82
2022/07/15 06:50:09;;;;;;;6.40;2.03;;;18.80;99.90;;;;;;5073302;28;20399;-83
2022/07/15 06:52:35;;;;;;;5.43;1.70;;;18.70;99.90;;;;;;5092017;28;20397;-83
2022/07/15 06:55:01;;;;;;;6.37;1.33;;;18.70;99.90;;;;;;5091431;28;20890;-82
2022/07/15 06:57:28;;;;;;;8.03;2.00;;;18.80;99.90;;;;;;5091393;28;20862;-82
2022/07/15 06:59:54;;;;;;;6.25;1.75;;;19.20;99.90;;;;;;5091138;28;20397;-82
2022/07/15 07:02:19;;;;;;;4.93;1.30;;;19.20;99.90;;;;;;5090481;28;20394;-82
2022/07/15 07:04:45;;;;;;;8.85;1.98;;;19.10;99.90;;;;;;5092020;28;20381;-82
2022/07/15 07:07:11;;;;;;;3.83;1.43;;;19.20;99.90;;;;;;5091472;28;20396;-83
2022/07/15 07:09:36;;;;;;;5.63;1.63;;;19.80;99.90;;;;;;5091654;28;20425;-83
2022/07/15 07:12:02;;;;;;;6.43;1.63;;;20.00;99.90;;;;;;5091604;28;20380;-83
2022/07/15 07:14:28;;;;;;;9.32;1.80;;;20.20;99.90;;;;;;5091363;28;20392;-80
2022/07/15 07:16:54;;;;;;;5.40;1.58;;;20.30;99.90;;;;;;5073075;28;20395;-82
2022/07/15 07:19:20;;;;;;;8.63;2.20;;;20.30;99.90;;;;;;5091987;28;20379;-83
2022/07/15 07:21:45;;;;;;;6.60;1.60;;;20.60;99.90;;;;;;5091184;28;20480;-82
2022/07/15 07:24:11;;;;;;;3.30;1.20;;;20.70;99.90;;;;;;5074038;28;20392;-83
2022/07/15 07:26:37;;;;;;;5.13;1.52;;;20.80;99.90;;;;;;5086673;28;20387;-82
2022/07/15 07:29:04;;;;;;;5.80;1.40;;;21.00;99.90;;;;;;5081932;28;20438;-83
2022/07/15 07:31:31;;;;;;;3.80;1.20;;;20.80;99.60;;;;;;5084085;28;20443;-83
2022/07/15 07:33:58;;;;;;;7.32;1.70;;;20.50;99.90;;;;;;5084174;28;20409;-83
2022/07/15 07:36:25;;;;;;;3.85;1.02;;;20.30;99.90;;;;;;5072618;28;20889;-81
2022/07/15 07:38:51;;;;;;;2.90;1.20;;;20.10;99.90;;;;;;5072894;28;20378;-83
2022/07/15 07:41:16;;;;;;;4.10;1.42;;;20.20;99.90;;;;;;5075497;28;20872;-82
2022/07/15 07:43:42;;;;;;;4.47;1.20;;;20.20;99.90;;;;;;5093952;28;20396;-82
2022/07/15 07:46:08;;;;;;;3.30;1.27;;;20.10;99.90;;;;;;5089843;28;20376;-83
2022/07/15 07:48:35;;;;;;;4.03;1.50;;;20.30;99.90;;;;;;5091390;28;20377;-83
2022/07/15 07:51:00;;;;;;;4.40;1.25;;;20.30;99.90;;;;;;5073005;28;20428;-84
2022/07/15 07:53:26;;;;;;;3.97;1.27;;;20.40;99.90;;;;;;5091519;28;20432;-83
2022/07/15 07:55:52;;;;;;;4.05;1.33;;;20.80;99.50;;;;;;5091361;28;20455;-83
2022/07/15 07:58:20;;;;;;;6.68;1.40;;;20.90;97.00;;;;;;5090753;28;20873;-83
2022/07/15 08:00:46;;;;;;;4.33;1.23;;;;;;;;;;5091299;28;20479;-84
2022/07/15 08:03:12;;;;;;;4.63;1.30;;;21.90;94.90;;;;;;5090957;28;20807;-83
2022/07/15 08:05:38;;;;;;;2.47;1.10;;;21.70;93.60;;;;;;5072960;28;20467;-84
2022/07/15 08:08:16;;;;;;;5.03;1.30;;;21.30;96.00;;;;;;5068818;28;20410;-82
2022/07/15 08:10:44;;;;;;;3.57;1.20;;;20.90;96.40;;;;;;5077623;28;20914;-83
2022/07/15 08:13:10;;;;;;;4.57;1.40;;;20.20;96.50;;;;;;5092040;28;20539;-83
2022/07/15 08:15:35;;;;;;;4.03;1.25;;;19.90;98.20;;;;;;5091195;28;20376;-83
2022/07/15 08:18:01;;;;;;;4.35;1.58;;;19.80;98.20;;;;;;5092722;28;20397;-83
2022/07/15 08:20:29;;;;;;;5.27;1.77;;;19.90;98.20;;;;;;5073991;28;20389;-82
2022/07/15 08:22:58;;;;;;;3.45;1.20;;;20.10;98.80;;;;;;5074420;28;20727;-82
2022/07/15 08:25:32;;;;;;;6.37;1.40;;;20.20;98.80;;;;;;5092638;28;20416;-81
2022/07/15 08:27:59;;;;;;;4.85;1.38;;;20.60;99.30;;;;;;5092361;28;20444;-82
2022/07/15 08:30:27;;;;;;;5.60;1.70;;;21.00;97.50;;;;;;5091604;28;20489;-83
2022/07/15 08:32:54;;;;;;;5.38;1.50;;;21.10;98.10;;;;;;5091250;28;20408;-82
2022/07/15 08:35:21;;;;;;;8.02;2.08;;;20.80;97.90;;;;;;5090998;28;20920;-82
2022/07/15 08:37:47;;;;;;;11.85;1.80;;;20.30;98.00;;;;;;5089810;28;20890;-81
2022/07/15 08:40:14;;;;;;;6.90;1.67;;;19.80;98.30;;;;;;5070456;28;20411;-81
2022/07/15 08:42:42;;;;;;;6.05;1.48;;;19.80;99.40;;;;;;5090095;28;20473;-81
2022/07/15 08:45:11;;;;;;;4.18;1.20;;;20.10;98.80;;;;;;5072809;28;20417;-82
2022/07/15 08:47:40;;;;;;;4.30;1.40;;;20.10;99.20;;;;;;5091661;28;20405;-82
2022/07/15 08:50:08;;;;;;;5.75;1.40;;;20.30;99.00;;;;;;5090528;28;20394;-82
2022/07/15 08:52:36;;;;;;;5.53;1.50;;;20.30;98.00;;;;;;5072325;28;20395;-81
2022/07/15 08:55:01;;;;;;;5.10;1.37;;;20.10;98.90;;;;;;5055461;28;20420;-82
2022/07/15 08:57:28;;;;;;;3.08;1.30;;;19.80;98.80;;;;;;5090550;28;20423;-82
2022/07/15 08:59:54;;;;;;;5.03;1.60;;;19.60;99.40;;;;;;5090831;28;20395;-81
2022/07/15 09:02:20;;;;;;;5.30;1.65;;;19.60;98.90;;;;;;5091111;28;20568;-82
2022/07/15 09:05:21;;;;;;;4.60;1.88;;;19.60;99.90;;;;;;5089602;28;20369;-81
2022/07/15 09:08:15;;;;;;;4.97;1.58;;;20.00;99.70;;;;;;5072321;28;20430;-83
2022/07/15 09:10:52;;;;;;;3.45;1.30;;;20.40;98.20;;;;;;5087485;28;20409;-85
2022/07/15 09:13:34;;;;;;;4.10;1.55;;;20.60;97.70;;;;;;5090697;28;20404;-82
2022/07/15 09:16:05;;;;;;;4.70;1.27;;;20.50;96.30;;;;;;5073460;28;20950;-81
2022/07/15 09:18:36;;;;;;;6.70;1.67;;;20.40;96.70;;;;;;5072244;28;20384;-82
2022/07/15 09:21:02;;;;;;;4.63;1.50;;;20.40;97.40;;;;;;5072904;28;20776;-82
2022/07/15 09:23:29;;;;;;;6.97;1.25;;;20.60;96.80;;;;;;5073556;28;20407;-83
2022/07/15 09:26:20;;;;;;;3.15;1.13;;;20.70;96.40;;;;;;5092349;28;20384;-83
2022/07/15 09:28:48;;;;;;;4.22;1.10;;;20.70;96.20;;;;;;5056820;28;20390;-82
2022/07/15 09:34:01;;;;;;;6.47;1.52;;;20.70;96.80;;;;;;5058159;28;21021;-84
2022/07/15 09:36:30;;;;;;;5.50;1.30;;;20.60;96.70;;;;;;5072517;28;20474;-84
2022/07/15 09:39:01;;;;;;;7.05;1.60;;;20.40;96.20;;;;;;5081743;28;20376;-83
2022/07/15 09:41:40;;;;;;;3.45;1.35;;;20.20;96.70;;;;;;5092355;28;20390;-82
2022/07/15 09:44:13;;;;;;;5.18;1.48;;;19.80;96.70;;;;;;5071552;28;20404;-85
2022/07/15 09:46:43;;;;;;;5.93;1.55;;;20.10;96.90;;;;;;5092001;28;20376;-83
2022/07/15 09:49:24;;;;;;;3.50;1.20;;;20.30;96.40;;;;;;5095513;28;20376;-83
2022/07/15 09:52:01;;;;;;;3.42;1.40;;;20.50;95.00;;;;;;5094388;28;20467;-82
2022/07/15 09:54:31;;;;;;;5.25;1.30;;;20.70;95.50;;;;;;5056366;28;20830;-82
2022/07/15 09:56:59;;;;;;;4.15;1.33;;;20.80;95.10;;;;;;5078191;28;20394;-83
2022/07/15 09:59:25;;;;;;;5.45;1.30;;;20.60;94.20;;;;;;5077189;28;20392;-83
2022/07/15 10:01:51;;;;;;;5.78;1.15;;;20.40;95.00;;;;;;5093444;28;20380;-83
2022/07/15 10:04:21;;;;;;;3.97;1.35;;;20.20;95.60;;;;;;5093476;28;20380;-82
2022/07/15 10:06:48;;;;;;;4.93;1.10;;;20.20;96.70;;;;;;5076427;28;20486;-84
2022/07/15 10:09:14;;;;;;;3.33;1.27;;;20.20;95.40;;;;;;5094009;28;20372;-83
2022/07/15 10:11:46;;;;;;;4.07;1.33;;;20.20;96.00;;;;;;5093725;28;20397;-82
2022/07/15 10:14:36;;;;;;;4.43;1.20;;;20.40;95.90;;;;;;5093949;28;21152;-83
2022/07/15 10:17:13;;;;;;;4.35;1.45;;;20.80;94.90;;;;;;5087460;28;20884;-83
2022/07/15 10:20:04;;;;;;;4.60;1.55;;;21.20;95.10;;;;;;5094344;28;20421;-82
2022/07/15 10:23:04;;;;;;;3.75;1.45;;;21.60;94.50;;;;;;5073568;28;20687;-83
2022/07/15 10:26:12;;;;;;;10.80;1.60;;;21.90;93.50;;;;;;5092798;28;20372;-84
2022/07/15 10:28:47;;;;;;;5.10;1.30;;;21.90;93.60;;;;;;5075622;28;20377;-83
2022/07/15 10:31:23;;;;;;;4.80;1.40;;;22.30;93.30;;;;;;5074258;28;20389;-83
2022/07/15 10:34:04;;;;;;;3.55;1.25;;;22.60;92.70;;;;;;5055112;28;20878;-82
2022/07/15 10:36:56;;;;;;;4.40;1.15;;;22.80;92.80;;;;;;5083217;28;20753;-83
2022/07/15 10:39:49;;;;;;;2.65;1.05;;;22.90;91.40;;;;;;5075848;28;20423;-82
2022/07/15 10:42:16;;;;;;;4.00;0.98;;;22.70;91.50;;;;;;5074356;28;20396;-83
2022/07/15 10:45:03;;;;;;;3.88;1.30;;;22.70;92.50;;;;;;5092954;28;20377;-83
2022/07/15 10:47:36;;;;;;;4.72;1.35;;;22.80;92.80;;;;;;5072627;28;20923;-84
2022/07/15 10:50:34;;;;;;;3.23;1.10;;;22.70;92.00;;;;;;5088091;28;20459;-84
2022/07/15 10:53:19;;;;;;;4.45;1.20;;;22.00;92.30;;;;;;5072939;28;20405;-83
2022/07/15 10:55:44;;;;;;;2.25;1.17;;;21.40;92.70;;;;;;5067778;28;20376;-83
2022/07/15 10:58:12;;;;;;;5.27;1.40;;;21.10;93.00;;;;;;5076232;28;20455;-82
2022/07/15 11:00:37;;;;;;;4.87;1.33;;;20.90;93.50;;;;;;5094793;28;20378;-82
2022/07/15 11:03:05;;;;;;;4.15;1.27;;;20.90;94.00;;;;;;5104955;28;20388;-83
2022/07/15 11:05:31;;;;;;;5.53;1.33;;;21.40;98.30;;;;;;5090640;28;20380;-84
2022/07/15 11:07:57;;;;;;;6.65;1.55;;;21.70;93.50;;;;;;5093254;28;20387;-84
2022/07/15 11:10:23;;;;;;;7.88;1.65;;;21.90;93.00;;;;;;5092694;28;20364;-83
2022/07/15 11:12:56;;;;;;;4.13;1.43;;;21.90;93.00;;;;;;5092866;28;20909;-83
2022/07/15 11:15:23;;;;;;;5.80;1.52;;;21.90;93.20;;;;;;5093118;28;20373;-83
2022/07/15 11:17:51;;;;;;;4.65;1.27;;;21.60;93.50;;;;;;5092726;28;20373;-83
2022/07/15 11:20:18;;;;;;;6.13;1.50;;;21.40;93.80;;;;;;5074084;28;20383;-83
2022/07/15 11:22:49;;;;;;;6.22;1.20;;;21.40;93.80;;;;;;5093033;28;20862;-83
2022/07/15 11:25:18;;;;;;;2.88;0.82;;;21.50;93.10;;;;;;5092373;28;20368;-83
2022/07/15 11:28:24;;;;;;;5.15;1.25;;;21.20;93.20;;;;;;5074597;28;20769;-82
2022/07/15 11:30:53;;;;;;;1.48;0.80;;;;;;;;;;5078998;28;20412;-83
2022/07/15 11:33:25;;;;;;;6.07;1.20;;;21.60;90.90;;;;;;5092273;28;20400;-82
2022/07/15 11:35:59;;;;;;;15.93;1.90;;;21.80;92.60;;;;;;5091533;28;20949;-83
2022/07/15 11:38:28;;;;;;;4.65;1.13;;;22.10;93.10;;;;;;5092516;28;20384;-83
2022/07/15 11:46:30;;;;;;;5.47;1.27;;;22.50;91.10;;;;;;5101510;28;20426;-83
2022/07/15 11:48:58;;;;;;;4.18;1.23;;;22.50;91.70;;;;;;5087616;28;20430;-83
2022/07/15 11:51:27;;;;;;;2.08;0.85;;;22.80;91.90;;;;;;5086234;28;20783;-83
2022/07/15 11:53:54;;;;;;;3.85;1.08;;;23.10;90.20;;;;;;5075176;28;20400;-83
2022/07/15 11:56:20;;;;;;;2.30;0.87;;;23.50;90.70;;;;;;5093797;28;20890;-82
2022/07/15 11:58:56;;;;;;;3.15;1.10;;;23.50;88.50;;;;;;5092993;28;20451;-83
2022/07/15 12:01:30;;;;;;;3.90;1.10;;;23.00;90.30;;;;;;5087528;28;20421;-83
2022/07/15 12:03:57;;;;;;;3.35;1.20;;;22.40;90.20;;;;;;5081862;28;20415;-82
2022/07/15 12:06:30;;;;;;;3.60;1.15;;;21.60;91.20;;;;;;5083424;28;20383;-84
2022/07/15 12:09:00;;;;;;;3.83;0.95;;;21.40;92.00;;;;;;5080977;28;20376;-82
2022/07/15 12:11:32;;;;;;;2.42;0.98;;;21.10;92.20;;;;;;5088283;28;20455;-81
2022/07/15 12:14:00;;;;;;;9.07;1.10;;;21.20;92.70;;;;;;5089717;28;20396;-83
2022/07/15 12:16:32;;;;;;;3.53;1.00;;;21.40;93.00;;;;;;5090566;28;20379;-83
2022/07/15 12:19:04;;;;;;;3.65;1.00;;;21.70;92.80;;;;;;5087774;28;20429;-82
2022/07/15 12:21:31;;;;;;;3.77;1.30;;;22.10;90.90;;;;;;5074479;28;20482;-82
2022/07/15 12:24:17;;;;;;;3.80;1.33;;;22.10;91.30;;;;;;5076657;28;20386;-81
2022/07/15 12:26:57;;;;;;;4.57;1.37;;;22.00;91.30;;;;;;5096657;28;20764;-82
2022/07/15 12:29:29;;;;;;;6.10;1.15;;;21.90;93.00;;;;;;5098081;28;20380;-82
2022/07/15 12:31:57;;;;;;;2.85;1.13;;;22.10;91.70;;;;;;5080280;28;20381;-82
2022/07/15 12:34:56;;;;;;;3.42;1.20;;;22.40;91.20;;;;;;5084345;28;20441;-83
2022/07/15 12:37:34;;;;;;;2.42;0.90;;;22.40;91.10;;;;;;5094322;28;20750;-82
2022/07/15 12:40:01;;;;;;;3.70;1.33;;;22.20;91.10;;;;;;5098160;28;20396;-82
2022/07/15 12:42:39;;;;;;;4.38;1.10;;;22.00;91.20;;;;;;5081565;28;20400;-83
2022/07/15 12:45:13;;;;;;;12.10;1.80;;;21.70;91.60;;;;;;5091871;28;20384;-83
2022/07/15 12:48:08;;;;;;;5.47;1.50;;;21.40;92.10;;;;;;5072818;28;20395;-83
2022/07/15 12:50:49;;;;;;;4.85;1.05;;;21.40;92.20;;;;;;5072723;28;20747;-83
2022/07/15 12:53:16;;;;;;;4.05;1.10;;;21.80;92.00;;;;;;5089440;28;20400;-81
2022/07/15 12:55:45;;;;;;;8.35;1.33;;;22.00;91.90;;;;;;5090969;28;20383;-81
2022/07/15 12:58:15;;;;;;;4.78;1.58;;;22.20;92.00;;;;;;5082918;28;20499;-82
2022/07/15 13:00:42;;;;;;;3.38;1.25;;;22.40;91.00;;;;;;5076945;28;20417;-82
2022/07/15 13:03:10;;;;;;;5.93;1.45;;;23.00;90.90;;;;;;5095077;28;20371;-83
2022/07/15 13:05:44;;;;;;;5.73;1.67;;;23.10;90.30;;;;;;5104016;28;20375;-82